sensor_id;sensor_type;location;lat;lon;timestamp;P1;durP1;ratioP1;P2;durP2;ratioP2
80481;SDS011;69797;43.864;21.410;2023-07-13T00:00:26;13.38;;;6.63;;
80481;SDS011;69797;43.864;21.410;2023-07-13T00:02:53;12.80;;;5.57;;
80481;SDS011;69797;43.864;21.410;2023-07-13T00:05:21;15.23;;;6.20;;
80481;SDS011;69797;43.864;21.410;2023-07-13T00:07:51;11.52;;;6.20;;
80481;SDS011;69797;43.864;21.410;2023-07-13T00:10:18;9.68;;;6.05;;
80481;SDS011;69797;43.864;21.410;2023-07-13T00:12:45;15.45;;;7.15;;
80481;SDS011;69797;43.864;21.410;2023-07-13T00:15:18;11.77;;;6.28;;
80481;SDS011;69797;43.864;21.410;2023-07-13T00:17:50;13.73;;;6.17;;
80481;SDS011;69797;43.864;21.410;2023-07-13T00:20:18;19.23;;;6.45;;
80481;SDS011;69797;43.864;21.410;2023-07-13T00:22:48;9.45;;;6.45;;
80481;SDS011;69797;43.864;21.410;2023-07-13T00:25:16;9.38;;;6.55;;
80481;SDS011;69797;43.864;21.410;2023-07-13T00:27:43;12.40;;;6.47;;
80481;SDS011;69797;43.864;21.410;2023-07-13T00:30:10;13.43;;;6.57;;
80481;SDS011;69797;43.864;21.410;2023-07-13T00:32:38;11.13;;;6.75;;
80481;SDS011;69797;43.864;21.410;2023-07-13T00:35:05;9.77;;;5.93;;
80481;SDS011;69797;43.864;21.410;2023-07-13T00:37:32;16.70;;;6.38;;
80481;SDS011;69797;43.864;21.410;2023-07-13T00:40:00;11.57;;;6.20;;
80481;SDS011;69797;43.864;21.410;2023-07-13T00:42:26;16.00;;;6.13;;
80481;SDS011;69797;43.864;21.410;2023-07-13T00:45:03;13.82;;;5.85;;
80481;SDS011;69797;43.864;21.410;2023-07-13T00:47:30;15.80;;;6.50;;
80481;SDS011;69797;43.864;21.410;2023-07-13T00:49:57;11.00;;;5.10;;
80481;SDS011;69797;43.864;21.410;2023-07-13T00:52:25;15.52;;;5.35;;
80481;SDS011;69797;43.864;21.410;2023-07-13T00:54:52;11.43;;;5.37;;
80481;SDS011;69797;43.864;21.410;2023-07-13T00:57:19;11.77;;;5.82;;
80481;SDS011;69797;43.864;21.410;2023-07-13T00:59:50;13.40;;;6.05;;
80481;SDS011;69797;43.864;21.410;2023-07-13T01:02:20;8.50;;;5.25;;
80481;SDS011;69797;43.864;21.410;2023-07-13T01:04:50;12.43;;;6.07;;
80481;SDS011;69797;43.864;21.410;2023-07-13T01:07:17;12.13;;;5.80;;
80481;SDS011;69797;43.864;21.410;2023-07-13T01:09:45;10.55;;;5.32;;
80481;SDS011;69797;43.864;21.410;2023-07-13T01:12:12;14.00;;;5.68;;
80481;SDS011;69797;43.864;21.410;2023-07-13T01:14:41;11.75;;;5.80;;
80481;SDS011;69797;43.864;21.410;2023-07-13T01:17:09;11.65;;;5.88;;
80481;SDS011;69797;43.864;21.410;2023-07-13T01:19:41;14.33;;;5.70;;
80481;SDS011;69797;43.864;21.410;2023-07-13T01:22:17;10.75;;;5.40;;
80481;SDS011;69797;43.864;21.410;2023-07-13T01:24:46;10.68;;;5.13;;
80481;SDS011;69797;43.864;21.410;2023-07-13T01:27:15;13.63;;;6.03;;
80481;SDS011;69797;43.864;21.410;2023-07-13T01:29:44;14.25;;;6.03;;
80481;SDS011;69797;43.864;21.410;2023-07-13T01:32:15;11.07;;;5.67;;
80481;SDS011;69797;43.864;21.410;2023-07-13T01:34:52;12.32;;;5.88;;
80481;SDS011;69797;43.864;21.410;2023-07-13T01:37:24;11.40;;;5.65;;
80481;SDS011;69797;43.864;21.410;2023-07-13T01:39:51;11.10;;;6.28;;
80481;SDS011;69797;43.864;21.410;2023-07-13T01:42:18;10.23;;;5.57;;
80481;SDS011;69797;43.864;21.410;2023-07-13T01:44:45;11.33;;;5.47;;
80481;SDS011;69797;43.864;21.410;2023-07-13T01:47:12;11.18;;;6.35;;
80481;SDS011;69797;43.864;21.410;2023-07-13T01:49:39;14.57;;;5.55;;
80481;SDS011;69797;43.864;21.410;2023-07-13T01:52:06;11.65;;;6.35;;
80481;SDS011;69797;43.864;21.410;2023-07-13T01:54:33;14.63;;;6.07;;
80481;SDS011;69797;43.864;21.410;2023-07-13T01:57:00;9.73;;;5.20;;
80481;SDS011;69797;43.864;21.410;2023-07-13T01:59:27;13.27;;;5.82;;
80481;SDS011;69797;43.864;21.410;2023-07-13T02:01:54;10.02;;;5.75;;
80481;SDS011;69797;43.864;21.410;2023-07-13T02:04:21;7.72;;;4.80;;
80481;SDS011;69797;43.864;21.410;2023-07-13T02:06:47;12.35;;;5.88;;
80481;SDS011;69797;43.864;21.410;2023-07-13T02:09:14;8.67;;;5.23;;
80481;SDS011;69797;43.864;21.410;2023-07-13T02:11:41;10.93;;;5.55;;
80481;SDS011;69797;43.864;21.410;2023-07-13T02:14:08;11.32;;;6.32;;
80481;SDS011;69797;43.864;21.410;2023-07-13T02:16:35;10.35;;;5.60;;
80481;SDS011;69797;43.864;21.410;2023-07-13T02:19:02;8.23;;;5.28;;
80481;SDS011;69797;43.864;21.410;2023-07-13T02:21:29;9.93;;;5.30;;
80481;SDS011;69797;43.864;21.410;2023-07-13T02:23:56;9.80;;;5.55;;
80481;SDS011;69797;43.864;21.410;2023-07-13T02:26:24;11.13;;;5.30;;
80481;SDS011;69797;43.864;21.410;2023-07-13T02:28:51;8.18;;;5.13;;
80481;SDS011;69797;43.864;21.410;2023-07-13T02:31:18;12.20;;;5.72;;
80481;SDS011;69797;43.864;21.410;2023-07-13T02:33:48;9.10;;;5.23;;
80481;SDS011;69797;43.864;21.410;2023-07-13T02:36:15;8.75;;;4.85;;
80481;SDS011;69797;43.864;21.410;2023-07-13T02:38:42;10.40;;;5.68;;
80481;SDS011;69797;43.864;21.410;2023-07-13T02:41:09;10.45;;;6.07;;
80481;SDS011;69797;43.864;21.410;2023-07-13T02:43:36;9.50;;;5.45;;
80481;SDS011;69797;43.864;21.410;2023-07-13T02:46:03;11.63;;;5.53;;
80481;SDS011;69797;43.864;21.410;2023-07-13T02:48:34;11.18;;;5.00;;
80481;SDS011;69797;43.864;21.410;2023-07-13T02:51:03;14.68;;;5.68;;
80481;SDS011;69797;43.864;21.410;2023-07-13T02:53:29;12.25;;;5.38;;
80481;SDS011;69797;43.864;21.410;2023-07-13T02:55:57;7.97;;;5.05;;
80481;SDS011;69797;43.864;21.410;2023-07-13T02:58:26;8.60;;;5.00;;
80481;SDS011;69797;43.864;21.410;2023-07-13T03:00:53;10.82;;;5.65;;
80481;SDS011;69797;43.864;21.410;2023-07-13T03:03:23;9.60;;;5.20;;
80481;SDS011;69797;43.864;21.410;2023-07-13T03:05:57;10.00;;;5.63;;
80481;SDS011;69797;43.864;21.410;2023-07-13T03:08:26;9.45;;;5.15;;
80481;SDS011;69797;43.864;21.410;2023-07-13T03:11:01;8.50;;;5.67;;
80481;SDS011;69797;43.864;21.410;2023-07-13T03:13:34;8.35;;;4.97;;
80481;SDS011;69797;43.864;21.410;2023-07-13T03:16:01;8.15;;;5.22;;
80481;SDS011;69797;43.864;21.410;2023-07-13T03:18:28;12.30;;;5.75;;
80481;SDS011;69797;43.864;21.410;2023-07-13T03:20:55;9.32;;;5.03;;
80481;SDS011;69797;43.864;21.410;2023-07-13T03:23:24;12.40;;;5.40;;
80481;SDS011;69797;43.864;21.410;2023-07-13T03:26:00;14.82;;;5.53;;
80481;SDS011;69797;43.864;21.410;2023-07-13T03:28:36;12.27;;;5.40;;
80481;SDS011;69797;43.864;21.410;2023-07-13T03:31:07;16.40;;;5.35;;
80481;SDS011;69797;43.864;21.410;2023-07-13T03:33:40;9.40;;;4.78;;
80481;SDS011;69797;43.864;21.410;2023-07-13T03:36:14;9.70;;;4.87;;
80481;SDS011;69797;43.864;21.410;2023-07-13T03:38:48;13.85;;;5.38;;
80481;SDS011;69797;43.864;21.410;2023-07-13T03:41:16;13.68;;;5.18;;
80481;SDS011;69797;43.864;21.410;2023-07-13T03:43:43;12.13;;;5.38;;
80481;SDS011;69797;43.864;21.410;2023-07-13T03:46:10;13.40;;;6.22;;
80481;SDS011;69797;43.864;21.410;2023-07-13T03:48:37;12.40;;;6.27;;
80481;SDS011;69797;43.864;21.410;2023-07-13T03:51:06;10.68;;;5.65;;
80481;SDS011;69797;43.864;21.410;2023-07-13T03:53:33;14.45;;;6.38;;
80481;SDS011;69797;43.864;21.410;2023-07-13T03:56:06;12.80;;;6.07;;
80481;SDS011;69797;43.864;21.410;2023-07-13T03:58:34;10.57;;;5.68;;
80481;SDS011;69797;43.864;21.410;2023-07-13T04:01:03;11.80;;;6.37;;
80481;SDS011;69797;43.864;21.410;2023-07-13T04:03:32;9.43;;;5.03;;
80481;SDS011;69797;43.864;21.410;2023-07-13T04:06:00;13.13;;;5.50;;
80481;SDS011;69797;43.864;21.410;2023-07-13T04:08:35;9.30;;;4.80;;
80481;SDS011;69797;43.864;21.410;2023-07-13T04:11:03;12.05;;;5.85;;
80481;SDS011;69797;43.864;21.410;2023-07-13T04:13:31;9.07;;;5.30;;
80481;SDS011;69797;43.864;21.410;2023-07-13T04:15:58;11.40;;;5.15;;
80481;SDS011;69797;43.864;21.410;2023-07-13T04:18:25;12.95;;;5.72;;
80481;SDS011;69797;43.864;21.410;2023-07-13T04:20:51;7.20;;;5.05;;
80481;SDS011;69797;43.864;21.410;2023-07-13T04:23:20;11.57;;;6.03;;
80481;SDS011;69797;43.864;21.410;2023-07-13T04:25:48;11.10;;;5.60;;
80481;SDS011;69797;43.864;21.410;2023-07-13T04:28:16;9.55;;;5.32;;
80481;SDS011;69797;43.864;21.410;2023-07-13T04:30:44;10.20;;;5.70;;
80481;SDS011;69797;43.864;21.410;2023-07-13T04:33:13;8.93;;;5.22;;
80481;SDS011;69797;43.864;21.410;2023-07-13T04:35:40;9.35;;;5.88;;
80481;SDS011;69797;43.864;21.410;2023-07-13T04:38:07;10.27;;;6.50;;
80481;SDS011;69797;43.864;21.410;2023-07-13T04:40:33;8.73;;;5.63;;
80481;SDS011;69797;43.864;21.410;2023-07-13T04:43:00;9.68;;;5.82;;
80481;SDS011;69797;43.864;21.410;2023-07-13T04:45:27;10.80;;;5.45;;
80481;SDS011;69797;43.864;21.410;2023-07-13T04:47:54;9.98;;;6.00;;
80481;SDS011;69797;43.864;21.410;2023-07-13T04:50:21;9.13;;;5.40;;
80481;SDS011;69797;43.864;21.410;2023-07-13T04:52:52;8.88;;;5.70;;
80481;SDS011;69797;43.864;21.410;2023-07-13T04:55:19;11.77;;;6.18;;
80481;SDS011;69797;43.864;21.410;2023-07-13T04:57:47;8.27;;;5.70;;
80481;SDS011;69797;43.864;21.410;2023-07-13T05:00:14;7.72;;;5.85;;
80481;SDS011;69797;43.864;21.410;2023-07-13T05:02:43;6.83;;;4.57;;
80481;SDS011;69797;43.864;21.410;2023-07-13T05:05:12;9.43;;;5.18;;
80481;SDS011;69797;43.864;21.410;2023-07-13T05:07:39;8.75;;;5.88;;
80481;SDS011;69797;43.864;21.410;2023-07-13T05:10:06;6.68;;;4.30;;
80481;SDS011;69797;43.864;21.410;2023-07-13T05:12:34;9.27;;;5.47;;
80481;SDS011;69797;43.864;21.410;2023-07-13T05:15:03;6.93;;;5.67;;
80481;SDS011;69797;43.864;21.410;2023-07-13T05:17:30;7.35;;;5.30;;
80481;SDS011;69797;43.864;21.410;2023-07-13T05:19:57;6.65;;;4.65;;
80481;SDS011;69797;43.864;21.410;2023-07-13T05:22:24;6.72;;;5.70;;
80481;SDS011;69797;43.864;21.410;2023-07-13T05:24:51;7.95;;;6.60;;
80481;SDS011;69797;43.864;21.410;2023-07-13T05:27:18;8.30;;;6.13;;
80481;SDS011;69797;43.864;21.410;2023-07-13T05:29:44;10.13;;;6.55;;
80481;SDS011;69797;43.864;21.410;2023-07-13T05:32:11;8.00;;;5.90;;
80481;SDS011;69797;43.864;21.410;2023-07-13T05:34:38;10.30;;;6.60;;
80481;SDS011;69797;43.864;21.410;2023-07-13T05:37:05;9.60;;;6.13;;
80481;SDS011;69797;43.864;21.410;2023-07-13T05:39:32;8.43;;;6.70;;
80481;SDS011;69797;43.864;21.410;2023-07-13T05:41:58;11.30;;;6.70;;
80481;SDS011;69797;43.864;21.410;2023-07-13T05:44:25;8.80;;;7.00;;
80481;SDS011;69797;43.864;21.410;2023-07-13T05:46:52;7.68;;;6.88;;
80481;SDS011;69797;43.864;21.410;2023-07-13T05:49:19;13.60;;;6.85;;
80481;SDS011;69797;43.864;21.410;2023-07-13T05:51:45;9.40;;;5.77;;
80481;SDS011;69797;43.864;21.410;2023-07-13T05:54:12;9.88;;;6.38;;
80481;SDS011;69797;43.864;21.410;2023-07-13T05:56:39;8.10;;;6.18;;
80481;SDS011;69797;43.864;21.410;2023-07-13T05:59:06;8.30;;;6.28;;
80481;SDS011;69797;43.864;21.410;2023-07-13T06:01:32;8.88;;;6.72;;
80481;SDS011;69797;43.864;21.410;2023-07-13T06:03:59;9.33;;;7.07;;
80481;SDS011;69797;43.864;21.410;2023-07-13T06:06:27;12.27;;;6.80;;
80481;SDS011;69797;43.864;21.410;2023-07-13T06:08:56;10.30;;;6.40;;
80481;SDS011;69797;43.864;21.410;2023-07-13T06:11:24;11.60;;;7.00;;
80481;SDS011;69797;43.864;21.410;2023-07-13T06:13:52;9.18;;;6.43;;
80481;SDS011;69797;43.864;21.410;2023-07-13T06:16:20;11.93;;;6.77;;
80481;SDS011;69797;43.864;21.410;2023-07-13T06:18:50;8.55;;;6.20;;
80481;SDS011;69797;43.864;21.410;2023-07-13T06:21:20;9.45;;;6.50;;
80481;SDS011;69797;43.864;21.410;2023-07-13T06:23:48;10.57;;;6.43;;
80481;SDS011;69797;43.864;21.410;2023-07-13T06:26:17;8.77;;;6.38;;
80481;SDS011;69797;43.864;21.410;2023-07-13T06:28:45;13.03;;;6.87;;
80481;SDS011;69797;43.864;21.410;2023-07-13T06:31:15;15.68;;;7.05;;
80481;SDS011;69797;43.864;21.410;2023-07-13T06:33:42;9.10;;;6.70;;
80481;SDS011;69797;43.864;21.410;2023-07-13T06:36:12;7.90;;;6.68;;
80481;SDS011;69797;43.864;21.410;2023-07-13T06:38:39;7.63;;;6.95;;
80481;SDS011;69797;43.864;21.410;2023-07-13T06:41:06;8.77;;;6.60;;
80481;SDS011;69797;43.864;21.410;2023-07-13T06:43:35;11.30;;;6.75;;
80481;SDS011;69797;43.864;21.410;2023-07-13T06:46:01;9.40;;;7.18;;
80481;SDS011;69797;43.864;21.410;2023-07-13T06:48:28;11.60;;;7.30;;
80481;SDS011;69797;43.864;21.410;2023-07-13T06:50:55;8.82;;;6.93;;
80481;SDS011;69797;43.864;21.410;2023-07-13T06:53:22;8.57;;;7.17;;
80481;SDS011;69797;43.864;21.410;2023-07-13T06:55:50;9.52;;;7.03;;
80481;SDS011;69797;43.864;21.410;2023-07-13T06:58:18;10.95;;;7.13;;
80481;SDS011;69797;43.864;21.410;2023-07-13T07:00:45;8.00;;;6.93;;
80481;SDS011;69797;43.864;21.410;2023-07-13T07:03:15;10.02;;;7.20;;
80481;SDS011;69797;43.864;21.410;2023-07-13T07:05:42;9.13;;;7.60;;
80481;SDS011;69797;43.864;21.410;2023-07-13T07:08:09;11.02;;;8.23;;
80481;SDS011;69797;43.864;21.410;2023-07-13T07:10:36;8.90;;;7.95;;
80481;SDS011;69797;43.864;21.410;2023-07-13T07:13:02;9.00;;;7.70;;
80481;SDS011;69797;43.864;21.410;2023-07-13T07:15:29;10.45;;;7.70;;
80481;SDS011;69797;43.864;21.410;2023-07-13T07:17:57;10.17;;;7.57;;
80481;SDS011;69797;43.864;21.410;2023-07-13T07:20:26;8.75;;;7.85;;
80481;SDS011;69797;43.864;21.410;2023-07-13T07:22:53;8.88;;;8.07;;
80481;SDS011;69797;43.864;21.410;2023-07-13T07:25:20;9.25;;;8.40;;
80481;SDS011;69797;43.864;21.410;2023-07-13T07:27:47;9.82;;;7.85;;
80481;SDS011;69797;43.864;21.410;2023-07-13T07:30:16;9.00;;;7.60;;
80481;SDS011;69797;43.864;21.410;2023-07-13T07:32:49;7.72;;;6.70;;
80481;SDS011;69797;43.864;21.410;2023-07-13T07:35:19;7.90;;;6.97;;
80481;SDS011;69797;43.864;21.410;2023-07-13T07:37:46;10.07;;;7.38;;
80481;SDS011;69797;43.864;21.410;2023-07-13T07:40:17;8.93;;;7.18;;
80481;SDS011;69797;43.864;21.410;2023-07-13T07:42:47;11.63;;;7.87;;
80481;SDS011;69797;43.864;21.410;2023-07-13T07:45:14;8.18;;;7.38;;
80481;SDS011;69797;43.864;21.410;2023-07-13T07:47:41;8.65;;;6.90;;
80481;SDS011;69797;43.864;21.410;2023-07-13T07:50:08;8.48;;;7.57;;
80481;SDS011;69797;43.864;21.410;2023-07-13T07:52:35;8.65;;;6.32;;
80481;SDS011;69797;43.864;21.410;2023-07-13T07:55:03;8.70;;;6.60;;
80481;SDS011;69797;43.864;21.410;2023-07-13T07:57:35;9.77;;;6.85;;
80481;SDS011;69797;43.864;21.410;2023-07-13T08:00:05;9.88;;;6.43;;
80481;SDS011;69797;43.864;21.410;2023-07-13T08:02:35;10.60;;;6.80;;
80481;SDS011;69797;43.864;21.410;2023-07-13T08:05:05;7.38;;;6.43;;
80481;SDS011;69797;43.864;21.410;2023-07-13T08:07:38;8.97;;;6.70;;
80481;SDS011;69797;43.864;21.410;2023-07-13T08:10:07;10.70;;;6.47;;
80481;SDS011;69797;43.864;21.410;2023-07-13T08:12:35;9.75;;;7.07;;
80481;SDS011;69797;43.864;21.410;2023-07-13T08:15:12;12.45;;;7.72;;
80481;SDS011;69797;43.864;21.410;2023-07-13T08:17:40;9.70;;;7.40;;
80481;SDS011;69797;43.864;21.410;2023-07-13T08:20:07;13.30;;;6.80;;
80481;SDS011;69797;43.864;21.410;2023-07-13T08:22:35;8.82;;;7.05;;
80481;SDS011;69797;43.864;21.410;2023-07-13T08:25:02;10.20;;;7.38;;
80481;SDS011;69797;43.864;21.410;2023-07-13T08:27:29;8.73;;;7.78;;
80481;SDS011;69797;43.864;21.410;2023-07-13T08:29:56;9.80;;;7.13;;
80481;SDS011;69797;43.864;21.410;2023-07-13T08:32:24;8.73;;;7.40;;
80481;SDS011;69797;43.864;21.410;2023-07-13T08:34:51;9.57;;;7.60;;
80481;SDS011;69797;43.864;21.410;2023-07-13T08:37:19;9.13;;;7.70;;
80481;SDS011;69797;43.864;21.410;2023-07-13T08:39:46;8.18;;;7.20;;
80481;SDS011;69797;43.864;21.410;2023-07-13T08:47:29;9.25;;;7.95;;
80481;SDS011;69797;43.864;21.410;2023-07-13T08:50:02;9.20;;;7.78;;
80481;SDS011;69797;43.864;21.410;2023-07-13T08:55:03;12.07;;;8.57;;
80481;SDS011;69797;43.864;21.410;2023-07-13T08:57:38;14.27;;;11.67;;
80481;SDS011;69797;43.864;21.410;2023-07-13T09:00:16;13.25;;;10.80;;
80481;SDS011;69797;43.864;21.410;2023-07-13T09:05:11;11.40;;;9.10;;
80481;SDS011;69797;43.864;21.410;2023-07-13T09:10:41;12.87;;;9.60;;
80481;SDS011;69797;43.864;21.410;2023-07-13T09:16:03;11.95;;;9.02;;
80481;SDS011;69797;43.864;21.410;2023-07-13T09:18:37;8.30;;;7.50;;
80481;SDS011;69797;43.864;21.410;2023-07-13T09:21:11;12.43;;;8.93;;
80481;SDS011;69797;43.864;21.410;2023-07-13T09:23:45;13.20;;;6.80;;
80481;SDS011;69797;43.864;21.410;2023-07-13T09:26:14;10.93;;;6.25;;
80481;SDS011;69797;43.864;21.410;2023-07-13T09:28:49;7.97;;;5.28;;
80481;SDS011;69797;43.864;21.410;2023-07-13T09:31:28;9.57;;;5.13;;
80481;SDS011;69797;43.864;21.410;2023-07-13T09:34:00;8.60;;;5.10;;
80481;SDS011;69797;43.864;21.410;2023-07-13T09:36:28;11.33;;;4.67;;
80481;SDS011;69797;43.864;21.410;2023-07-13T09:42:07;10.02;;;5.00;;
80481;SDS011;69797;43.864;21.410;2023-07-13T09:47:21;7.15;;;4.75;;
80481;SDS011;69797;43.864;21.410;2023-07-13T09:50:00;10.03;;;4.27;;
80481;SDS011;69797;43.864;21.410;2023-07-13T09:52:53;7.57;;;4.25;;
80481;SDS011;69797;43.864;21.410;2023-07-13T09:55:26;7.55;;;5.00;;
80481;SDS011;69797;43.864;21.410;2023-07-13T09:57:57;8.85;;;4.65;;
80481;SDS011;69797;43.864;21.410;2023-07-13T10:00:27;9.05;;;4.40;;
80481;SDS011;69797;43.864;21.410;2023-07-13T10:05:50;11.93;;;6.18;;
80481;SDS011;69797;43.864;21.410;2023-07-13T10:08:29;10.13;;;5.15;;
80481;SDS011;69797;43.864;21.410;2023-07-13T10:11:01;9.23;;;4.50;;
80481;SDS011;69797;43.864;21.410;2023-07-13T10:13:53;9.80;;;5.38;;
80481;SDS011;69797;43.864;21.410;2023-07-13T10:16:26;8.30;;;4.40;;
80481;SDS011;69797;43.864;21.410;2023-07-13T10:19:02;5.25;;;3.85;;
80481;SDS011;69797;43.864;21.410;2023-07-13T10:21:53;9.00;;;4.68;;
80481;SDS011;69797;43.864;21.410;2023-07-13T10:24:27;7.20;;;3.95;;
80481;SDS011;69797;43.864;21.410;2023-07-13T10:27:03;10.40;;;4.07;;
80481;SDS011;69797;43.864;21.410;2023-07-13T10:32:49;8.20;;;3.78;;
80481;SDS011;69797;43.864;21.410;2023-07-13T10:35:17;6.40;;;3.97;;
80481;SDS011;69797;43.864;21.410;2023-07-13T10:37:57;6.95;;;3.90;;
80481;SDS011;69797;43.864;21.410;2023-07-13T10:40:43;8.80;;;4.47;;
80481;SDS011;69797;43.864;21.410;2023-07-13T10:43:34;8.67;;;3.73;;
80481;SDS011;69797;43.864;21.410;2023-07-13T10:46:07;6.88;;;3.53;;
80481;SDS011;69797;43.864;21.410;2023-07-13T10:48:37;13.30;;;4.00;;
80481;SDS011;69797;43.864;21.410;2023-07-13T10:51:06;13.43;;;4.93;;
80481;SDS011;69797;43.864;21.410;2023-07-13T10:53:35;6.55;;;3.80;;
80481;SDS011;69797;43.864;21.410;2023-07-13T10:56:04;10.80;;;4.50;;
80481;SDS011;69797;43.864;21.410;2023-07-13T10:58:43;8.00;;;3.75;;
80481;SDS011;69797;43.864;21.410;2023-07-13T11:06:15;8.20;;;3.92;;
80481;SDS011;69797;43.864;21.410;2023-07-13T11:18:45;8.18;;;4.50;;
80481;SDS011;69797;43.864;21.410;2023-07-13T11:24:04;7.35;;;4.28;;
80481;SDS011;69797;43.864;21.410;2023-07-13T11:26:43;8.57;;;4.43;;
80481;SDS011;69797;43.864;21.410;2023-07-13T11:31:53;6.63;;;4.07;;
80481;SDS011;69797;43.864;21.410;2023-07-13T11:34:27;9.27;;;4.87;;
80481;SDS011;69797;43.864;21.410;2023-07-13T11:36:57;9.20;;;4.65;;
80481;SDS011;69797;43.864;21.410;2023-07-13T11:39:30;8.02;;;4.53;;
80481;SDS011;69797;43.864;21.410;2023-07-13T11:42:02;8.07;;;4.40;;
80481;SDS011;69797;43.864;21.410;2023-07-13T11:44:34;8.82;;;4.35;;
80481;SDS011;69797;43.864;21.410;2023-07-13T11:47:08;10.77;;;3.83;;
80481;SDS011;69797;43.864;21.410;2023-07-13T11:49:44;5.68;;;3.92;;
80481;SDS011;69797;43.864;21.410;2023-07-13T11:52:14;9.48;;;4.00;;
80481;SDS011;69797;43.864;21.410;2023-07-13T11:55:18;6.43;;;4.35;;
80481;SDS011;69797;43.864;21.410;2023-07-13T11:58:00;8.35;;;4.20;;
80481;SDS011;69797;43.864;21.410;2023-07-13T12:00:30;10.87;;;5.20;;
80481;SDS011;69797;43.864;21.410;2023-07-13T12:03:00;7.88;;;3.97;;
80481;SDS011;69797;43.864;21.410;2023-07-13T12:05:31;7.80;;;4.40;;
80481;SDS011;69797;43.864;21.410;2023-07-13T12:08:08;10.02;;;4.20;;
80481;SDS011;69797;43.864;21.410;2023-07-13T12:10:55;7.68;;;4.47;;
80481;SDS011;69797;43.864;21.410;2023-07-13T12:13:23;7.57;;;4.40;;
80481;SDS011;69797;43.864;21.410;2023-07-13T12:15:54;7.00;;;4.25;;
80481;SDS011;69797;43.864;21.410;2023-07-13T12:18:23;7.18;;;4.18;;
80481;SDS011;69797;43.864;21.410;2023-07-13T12:20:57;7.75;;;3.88;;
80481;SDS011;69797;43.864;21.410;2023-07-13T12:23:29;6.22;;;3.75;;
80481;SDS011;69797;43.864;21.410;2023-07-13T12:25:59;7.13;;;3.80;;
80481;SDS011;69797;43.864;21.410;2023-07-13T12:28:36;6.22;;;4.07;;
80481;SDS011;69797;43.864;21.410;2023-07-13T12:31:07;7.10;;;4.10;;
80481;SDS011;69797;43.864;21.410;2023-07-13T12:33:55;6.57;;;3.95;;
80481;SDS011;69797;43.864;21.410;2023-07-13T12:36:24;11.48;;;4.28;;
80481;SDS011;69797;43.864;21.410;2023-07-13T12:38:51;11.63;;;4.33;;
80481;SDS011;69797;43.864;21.410;2023-07-13T12:41:18;9.82;;;4.50;;
80481;SDS011;69797;43.864;21.410;2023-07-13T12:43:47;9.18;;;3.85;;
80481;SDS011;69797;43.864;21.410;2023-07-13T12:46:21;5.55;;;3.90;;
80481;SDS011;69797;43.864;21.410;2023-07-13T12:48:51;7.40;;;3.78;;
80481;SDS011;69797;43.864;21.410;2023-07-13T12:51:40;6.83;;;4.30;;
80481;SDS011;69797;43.864;21.410;2023-07-13T12:54:13;8.60;;;4.05;;
80481;SDS011;69797;43.864;21.410;2023-07-13T12:56:43;9.65;;;4.57;;
80481;SDS011;69797;43.864;21.410;2023-07-13T12:59:15;9.57;;;4.05;;
80481;SDS011;69797;43.864;21.410;2023-07-13T13:01:45;8.10;;;4.00;;
80481;SDS011;69797;43.864;21.410;2023-07-13T13:04:13;8.50;;;4.20;;
80481;SDS011;69797;43.864;21.410;2023-07-13T13:06:40;7.53;;;4.10;;
80481;SDS011;69797;43.864;21.410;2023-07-13T13:09:12;9.07;;;4.32;;
80481;SDS011;69797;43.864;21.410;2023-07-13T13:11:41;7.60;;;4.20;;
80481;SDS011;69797;43.864;21.410;2023-07-13T13:14:08;17.58;;;4.70;;
80481;SDS011;69797;43.864;21.410;2023-07-13T13:16:37;6.23;;;4.30;;
80481;SDS011;69797;43.864;21.410;2023-07-13T13:21:43;7.80;;;4.28;;
80481;SDS011;69797;43.864;21.410;2023-07-13T13:24:16;7.30;;;4.30;;
80481;SDS011;69797;43.864;21.410;2023-07-13T13:26:46;8.20;;;5.30;;
80481;SDS011;69797;43.864;21.410;2023-07-13T13:29:16;10.67;;;3.83;;
80481;SDS011;69797;43.864;21.410;2023-07-13T13:31:45;6.70;;;4.28;;
80481;SDS011;69797;43.864;21.410;2023-07-13T13:34:13;10.20;;;4.00;;
80481;SDS011;69797;43.864;21.410;2023-07-13T13:36:42;9.00;;;4.78;;
80481;SDS011;69797;43.864;21.410;2023-07-13T13:41:52;9.30;;;4.80;;
80481;SDS011;69797;43.864;21.410;2023-07-13T13:44:20;9.35;;;4.88;;
80481;SDS011;69797;43.864;21.410;2023-07-13T13:46:48;7.55;;;4.75;;
80481;SDS011;69797;43.864;21.410;2023-07-13T13:49:22;12.25;;;4.32;;
80481;SDS011;69797;43.864;21.410;2023-07-13T13:51:51;7.07;;;4.93;;
80481;SDS011;69797;43.864;21.410;2023-07-13T13:54:19;9.43;;;4.93;;
80481;SDS011;69797;43.864;21.410;2023-07-13T13:56:48;6.95;;;4.72;;
80481;SDS011;69797;43.864;21.410;2023-07-13T13:59:16;9.75;;;4.60;;
80481;SDS011;69797;43.864;21.410;2023-07-13T14:01:43;7.28;;;4.80;;
80481;SDS011;69797;43.864;21.410;2023-07-13T14:04:14;9.13;;;5.45;;
80481;SDS011;69797;43.864;21.410;2023-07-13T14:06:44;8.13;;;4.90;;
80481;SDS011;69797;43.864;21.410;2023-07-13T14:09:12;7.00;;;4.60;;
80481;SDS011;69797;43.864;21.410;2023-07-13T14:11:41;10.48;;;4.72;;
80481;SDS011;69797;43.864;21.410;2023-07-13T14:14:14;9.43;;;5.57;;
80481;SDS011;69797;43.864;21.410;2023-07-13T14:16:45;10.52;;;5.35;;
80481;SDS011;69797;43.864;21.410;2023-07-13T14:19:20;11.97;;;5.03;;
80481;SDS011;69797;43.864;21.410;2023-07-13T14:21:47;9.20;;;5.18;;
80481;SDS011;69797;43.864;21.410;2023-07-13T14:24:16;8.60;;;5.28;;
80481;SDS011;69797;43.864;21.410;2023-07-13T14:26:46;11.30;;;5.28;;
80481;SDS011;69797;43.864;21.410;2023-07-13T14:29:14;8.70;;;5.18;;
80481;SDS011;69797;43.864;21.410;2023-07-13T14:31:47;8.77;;;5.37;;
80481;SDS011;69797;43.864;21.410;2023-07-13T14:34:14;10.15;;;5.38;;
80481;SDS011;69797;43.864;21.410;2023-07-13T14:36:44;9.05;;;5.25;;
80481;SDS011;69797;43.864;21.410;2023-07-13T14:39:14;14.27;;;5.53;;
80481;SDS011;69797;43.864;21.410;2023-07-13T14:41:43;9.48;;;5.97;;
80481;SDS011;69797;43.864;21.410;2023-07-13T14:44:15;10.23;;;5.23;;
80481;SDS011;69797;43.864;21.410;2023-07-13T14:46:44;12.32;;;5.72;;
80481;SDS011;69797;43.864;21.410;2023-07-13T14:52:09;12.23;;;5.97;;
80481;SDS011;69797;43.864;21.410;2023-07-13T14:54:40;9.38;;;5.60;;
80481;SDS011;69797;43.864;21.410;2023-07-13T14:57:10;11.33;;;5.93;;
80481;SDS011;69797;43.864;21.410;2023-07-13T14:59:38;11.30;;;6.10;;
80481;SDS011;69797;43.864;21.410;2023-07-13T15:05:14;11.07;;;5.85;;
80481;SDS011;69797;43.864;21.410;2023-07-13T15:07:46;11.05;;;5.93;;
80481;SDS011;69797;43.864;21.410;2023-07-13T15:12:48;9.38;;;5.65;;
80481;SDS011;69797;43.864;21.410;2023-07-13T15:15:17;10.27;;;5.80;;
80481;SDS011;69797;43.864;21.410;2023-07-13T15:17:44;12.95;;;5.65;;
80481;SDS011;69797;43.864;21.410;2023-07-13T15:20:21;9.77;;;6.43;;
80481;SDS011;69797;43.864;21.410;2023-07-13T15:22:49;10.83;;;6.37;;
80481;SDS011;69797;43.864;21.410;2023-07-13T15:25:20;10.20;;;5.78;;
80481;SDS011;69797;43.864;21.410;2023-07-13T15:27:49;10.50;;;6.50;;
80481;SDS011;69797;43.864;21.410;2023-07-13T15:30:20;10.98;;;5.47;;
80481;SDS011;69797;43.864;21.410;2023-07-13T15:32:48;10.65;;;6.20;;
80481;SDS011;69797;43.864;21.410;2023-07-13T15:35:16;15.00;;;6.30;;
80481;SDS011;69797;43.864;21.410;2023-07-13T15:37:49;10.55;;;6.65;;
80481;SDS011;69797;43.864;21.410;2023-07-13T15:40:16;11.23;;;6.93;;
80481;SDS011;69797;43.864;21.410;2023-07-13T15:42:47;15.65;;;7.70;;
80481;SDS011;69797;43.864;21.410;2023-07-13T15:45:15;11.45;;;7.45;;